Terminal Aerodrome Forecast
Issued by NWS

Home | Current Version | Previous Version | Text Only | Print | Product List | Glossary On
Versions: 1 2 3 4 5 6 7 8 9 10 11 12 13 14 15 16 17 18 19 20 21 22 23 24 25 26 27 28 29 30
473
FTUS43 KDVN 300520
TAFCID
TAF
KCID 300520Z 3006/0106 06011KT P6SM VCSH BKN030
     FM300900 07014G21KT 6SM -RA BR BKN035
     FM301400 07018G25KT 3SM RA BR SCT009 OVC012
     FM302000 05016G24KT 5SM BR VCSH OVC009
     FM010100 05012KT 6SM BR OVC006=

USA.gov is the U.S. government's official web portal to all federal, state and local government web resources and services.